sim
Sign-in with your pilot id or email,
or register
Callsign
Passwort

Schedule Details

Flight Number: RYR28
Departure: Athens Eleftherios Venizelos (LGAV) at 21:00
Arrival: Thessaloniki International Airport (LGTS) at 21:59
Route: Ryanair Passenger Schedule. Enter filed route here before submitting Pirep.

Weather Information
Getting current METAR information for LGAV 202350Z 32006KT 9999 FEW030 08/03 Q1027 NOSIG
Getting current METAR information for LGTS 202320Z 11005KT 9999 SCT025 09/07 Q1027 NOSIG

Schedule Frequency

Route Map